sensor_id;sensor_type;location;lat;lon;timestamp;temperature;humidity
38902;DHT22;24661;53.566;9.910;2022-08-21T00:01:16;15.30;99.90
38902;DHT22;24661;53.566;9.910;2022-08-21T00:03:43;16.00;99.90
38902;DHT22;24661;53.566;9.910;2022-08-21T00:06:09;14.90;99.90
38902;DHT22;24661;53.566;9.910;2022-08-21T00:08:35;15.00;99.90
38902;DHT22;24661;53.566;9.910;2022-08-21T00:11:01;14.90;99.90
38902;DHT22;24661;53.566;9.910;2022-08-21T00:13:27;15.00;99.90
38902;DHT22;24661;53.566;9.910;2022-08-21T00:15:53;15.70;99.90
38902;DHT22;24661;53.566;9.910;2022-08-21T00:18:19;14.80;99.90
38902;DHT22;24661;53.566;9.910;2022-08-21T00:20:46;14.70;99.90
38902;DHT22;24661;53.566;9.910;2022-08-21T00:23:12;14.70;99.90
38902;DHT22;24661;53.566;9.910;2022-08-21T00:25:39;14.70;99.90
38902;DHT22;24661;53.566;9.910;2022-08-21T00:28:05;14.60;99.90
38902;DHT22;24661;53.566;9.910;2022-08-21T00:30:32;14.70;99.90
38902;DHT22;24661;53.566;9.910;2022-08-21T00:35:36;14.90;99.90
38902;DHT22;24661;53.566;9.910;2022-08-21T00:38:04;14.80;99.90
38902;DHT22;24661;53.566;9.910;2022-08-21T00:40:36;14.80;99.90
38902;DHT22;24661;53.566;9.910;2022-08-21T00:43:07;14.90;99.90
38902;DHT22;24661;53.566;9.910;2022-08-21T00:45:33;14.90;99.90
38902;DHT22;24661;53.566;9.910;2022-08-21T00:47:59;14.90;99.90
38902;DHT22;24661;53.566;9.910;2022-08-21T00:50:30;13.90;99.90
38902;DHT22;24661;53.566;9.910;2022-08-21T00:52:58;14.80;99.90
38902;DHT22;24661;53.566;9.910;2022-08-21T00:57:53;14.80;99.90
38902;DHT22;24661;53.566;9.910;2022-08-21T01:00:31;14.80;99.90
38902;DHT22;24661;53.566;9.910;2022-08-21T01:02:58;14.80;99.90
38902;DHT22;24661;53.566;9.910;2022-08-21T01:05:25;14.80;99.90
38902;DHT22;24661;53.566;9.910;2022-08-21T01:39:40;15.10;99.90
38902;DHT22;24661;53.566;9.910;2022-08-21T01:42:07;15.10;99.90
38902;DHT22;24661;53.566;9.910;2022-08-21T01:54:19;15.00;99.90
38902;DHT22;24661;53.566;9.910;2022-08-21T01:56:47;14.90;99.90
38902;DHT22;24661;53.566;9.910;2022-08-21T02:04:07;14.80;99.90
38902;DHT22;24661;53.566;9.910;2022-08-21T02:06:34;14.80;99.90
38902;DHT22;24661;53.566;9.910;2022-08-21T02:09:01;14.70;99.90
38902;DHT22;24661;53.566;9.910;2022-08-21T02:11:27;14.70;99.90
38902;DHT22;24661;53.566;9.910;2022-08-21T02:13:52;14.70;99.90
38902;DHT22;24661;53.566;9.910;2022-08-21T02:16:18;14.70;99.90
38902;DHT22;24661;53.566;9.910;2022-08-21T02:18:44;14.70;99.90
38902;DHT22;24661;53.566;9.910;2022-08-21T02:21:09;14.60;99.90
38902;DHT22;24661;53.566;9.910;2022-08-21T02:23:35;14.70;99.90
38902;DHT22;24661;53.566;9.910;2022-08-21T02:26:03;14.40;99.90
38902;DHT22;24661;53.566;9.910;2022-08-21T02:28:29;14.60;99.90
38902;DHT22;24661;53.566;9.910;2022-08-21T02:30:56;14.60;99.90
38902;DHT22;24661;53.566;9.910;2022-08-21T02:33:22;16.60;99.90
38902;DHT22;24661;53.566;9.910;2022-08-21T02:35:49;15.20;99.90
38902;DHT22;24661;53.566;9.910;2022-08-21T02:38:18;14.60;99.90
38902;DHT22;24661;53.566;9.910;2022-08-21T02:40:47;14.70;99.90
38902;DHT22;24661;53.566;9.910;2022-08-21T02:43:14;15.40;99.90
38902;DHT22;24661;53.566;9.910;2022-08-21T02:45:41;14.60;99.90
38902;DHT22;24661;53.566;9.910;2022-08-21T02:48:10;14.70;99.90
38902;DHT22;24661;53.566;9.910;2022-08-21T02:50:48;15.10;99.90
38902;DHT22;24661;53.566;9.910;2022-08-21T02:53:16;14.60;99.90
38902;DHT22;24661;53.566;9.910;2022-08-21T02:55:43;14.60;99.90
38902;DHT22;24661;53.566;9.910;2022-08-21T02:58:10;15.40;99.90
38902;DHT22;24661;53.566;9.910;2022-08-21T03:00:37;14.50;99.90
38902;DHT22;24661;53.566;9.910;2022-08-21T03:03:04;14.50;99.90
38902;DHT22;24661;53.566;9.910;2022-08-21T03:05:31;14.50;99.90
38902;DHT22;24661;53.566;9.910;2022-08-21T03:07:59;14.40;99.90
38902;DHT22;24661;53.566;9.910;2022-08-21T03:10:25;14.80;99.90
38902;DHT22;24661;53.566;9.910;2022-08-21T03:12:51;14.40;99.90
38902;DHT22;24661;53.566;9.910;2022-08-21T03:15:19;14.30;99.90
38902;DHT22;24661;53.566;9.910;2022-08-21T03:17:46;14.50;99.90
38902;DHT22;24661;53.566;9.910;2022-08-21T03:20:14;14.20;99.90
38902;DHT22;24661;53.566;9.910;2022-08-21T03:22:40;14.10;99.90
38902;DHT22;24661;53.566;9.910;2022-08-21T03:25:07;14.30;99.90
38902;DHT22;24661;53.566;9.910;2022-08-21T03:27:34;14.00;99.90
38902;DHT22;24661;53.566;9.910;2022-08-21T03:30:00;14.00;99.90
38902;DHT22;24661;53.566;9.910;2022-08-21T03:32:26;14.00;99.90
38902;DHT22;24661;53.566;9.910;2022-08-21T03:34:52;14.10;99.90
38902;DHT22;24661;53.566;9.910;2022-08-21T03:37:18;14.00;99.90
38902;DHT22;24661;53.566;9.910;2022-08-21T03:39:44;13.90;99.90
38902;DHT22;24661;53.566;9.910;2022-08-21T03:42:11;13.90;99.90
38902;DHT22;24661;53.566;9.910;2022-08-21T03:44:37;13.80;99.90
38902;DHT22;24661;53.566;9.910;2022-08-21T03:47:04;13.80;99.90
38902;DHT22;24661;53.566;9.910;2022-08-21T03:49:30;13.80;99.90
38902;DHT22;24661;53.566;9.910;2022-08-21T03:51:56;13.80;99.90
38902;DHT22;24661;53.566;9.910;2022-08-21T03:54:22;13.70;99.90
38902;DHT22;24661;53.566;9.910;2022-08-21T03:56:48;13.80;99.90
38902;DHT22;24661;53.566;9.910;2022-08-21T03:59:13;13.80;99.90
38902;DHT22;24661;53.566;9.910;2022-08-21T04:01:39;14.70;99.90
38902;DHT22;24661;53.566;9.910;2022-08-21T04:04:06;13.80;99.90
38902;DHT22;24661;53.566;9.910;2022-08-21T04:06:32;13.80;99.90
38902;DHT22;24661;53.566;9.910;2022-08-21T04:08:57;14.10;99.90
38902;DHT22;24661;53.566;9.910;2022-08-21T04:11:23;13.80;99.90
38902;DHT22;24661;53.566;9.910;2022-08-21T04:13:49;13.80;99.90
38902;DHT22;24661;53.566;9.910;2022-08-21T04:16:15;13.80;99.90
38902;DHT22;24661;53.566;9.910;2022-08-21T04:18:41;13.70;99.90
38902;DHT22;24661;53.566;9.910;2022-08-21T04:21:09;13.70;99.90
38902;DHT22;24661;53.566;9.910;2022-08-21T04:23:36;13.60;99.90
38902;DHT22;24661;53.566;9.910;2022-08-21T04:26:02;13.80;99.90
38902;DHT22;24661;53.566;9.910;2022-08-21T04:28:28;14.40;99.90
38902;DHT22;24661;53.566;9.910;2022-08-21T04:30:53;15.60;99.90
38902;DHT22;24661;53.566;9.910;2022-08-21T04:33:20;14.10;99.90
38902;DHT22;24661;53.566;9.910;2022-08-21T04:35:47;14.00;99.90
38902;DHT22;24661;53.566;9.910;2022-08-21T04:38:13;14.10;99.90
38902;DHT22;24661;53.566;9.910;2022-08-21T04:40:39;14.20;99.90
38902;DHT22;24661;53.566;9.910;2022-08-21T04:43:07;14.70;99.90
38902;DHT22;24661;53.566;9.910;2022-08-21T04:45:45;11.50;99.90
38902;DHT22;24661;53.566;9.910;2022-08-21T04:48:15;14.40;99.90
38902;DHT22;24661;53.566;9.910;2022-08-21T04:50:47;13.80;99.90
38902;DHT22;24661;53.566;9.910;2022-08-21T04:53:25;14.60;99.90
38902;DHT22;24661;53.566;9.910;2022-08-21T04:55:52;14.60;99.90
38902;DHT22;24661;53.566;9.910;2022-08-21T04:58:20;14.90;99.90
38902;DHT22;24661;53.566;9.910;2022-08-21T05:00:47;16.30;99.90
38902;DHT22;24661;53.566;9.910;2022-08-21T05:03:14;14.80;99.90
38902;DHT22;24661;53.566;9.910;2022-08-21T05:05:41;14.90;99.90
38902;DHT22;24661;53.566;9.910;2022-08-21T05:08:07;14.80;99.90
38902;DHT22;24661;53.566;9.910;2022-08-21T05:10:34;14.90;99.90
38902;DHT22;24661;53.566;9.910;2022-08-21T05:13:00;14.90;99.90
38902;DHT22;24661;53.566;9.910;2022-08-21T05:15:26;15.00;99.90
38902;DHT22;24661;53.566;9.910;2022-08-21T05:17:52;15.00;99.90
38902;DHT22;24661;53.566;9.910;2022-08-21T05:20:18;15.10;99.90
38902;DHT22;24661;53.566;9.910;2022-08-21T05:22:45;15.20;99.90
38902;DHT22;24661;53.566;9.910;2022-08-21T05:25:10;15.20;99.90
38902;DHT22;24661;53.566;9.910;2022-08-21T05:27:37;15.30;99.90
38902;DHT22;24661;53.566;9.910;2022-08-21T05:30:05;15.40;99.90
38902;DHT22;24661;53.566;9.910;2022-08-21T05:32:31;15.50;99.90
38902;DHT22;24661;53.566;9.910;2022-08-21T05:34:56;15.60;99.90
38902;DHT22;24661;53.566;9.910;2022-08-21T05:37:22;15.60;99.90
38902;DHT22;24661;53.566;9.910;2022-08-21T05:39:48;15.60;99.90
38902;DHT22;24661;53.566;9.910;2022-08-21T05:42:13;15.70;99.90
38902;DHT22;24661;53.566;9.910;2022-08-21T05:44:39;15.70;99.90
38902;DHT22;24661;53.566;9.910;2022-08-21T05:47:08;15.80;99.90
38902;DHT22;24661;53.566;9.910;2022-08-21T05:49:33;15.90;99.90
38902;DHT22;24661;53.566;9.910;2022-08-21T05:52:00;15.90;99.90
38902;DHT22;24661;53.566;9.910;2022-08-21T05:54:26;18.80;99.90
38902;DHT22;24661;53.566;9.910;2022-08-21T05:56:52;16.00;99.90
38902;DHT22;24661;53.566;9.910;2022-08-21T05:59:18;16.10;99.90
38902;DHT22;24661;53.566;9.910;2022-08-21T06:01:44;16.30;99.90
38902;DHT22;24661;53.566;9.910;2022-08-21T06:04:11;16.40;99.90
38902;DHT22;24661;53.566;9.910;2022-08-21T06:06:37;16.40;99.90
38902;DHT22;24661;53.566;9.910;2022-08-21T06:09:03;16.60;99.90
38902;DHT22;24661;53.566;9.910;2022-08-21T06:11:30;16.70;99.90
38902;DHT22;24661;53.566;9.910;2022-08-21T06:13:55;16.80;99.90
38902;DHT22;24661;53.566;9.910;2022-08-21T06:16:21;16.90;99.90
38902;DHT22;24661;53.566;9.910;2022-08-21T06:18:48;17.00;99.90
38902;DHT22;24661;53.566;9.910;2022-08-21T06:21:14;15.80;99.90
38902;DHT22;24661;53.566;9.910;2022-08-21T06:23:40;17.10;99.90
38902;DHT22;24661;53.566;9.910;2022-08-21T06:26:06;17.20;99.90
38902;DHT22;24661;53.566;9.910;2022-08-21T06:28:33;17.20;99.90
38902;DHT22;24661;53.566;9.910;2022-08-21T06:30:59;17.20;99.90
38902;DHT22;24661;53.566;9.910;2022-08-21T06:33:25;17.20;99.90
38902;DHT22;24661;53.566;9.910;2022-08-21T06:35:51;17.10;99.90
38902;DHT22;24661;53.566;9.910;2022-08-21T06:38:16;17.10;99.90
38902;DHT22;24661;53.566;9.910;2022-08-21T06:40:42;17.10;99.90
38902;DHT22;24661;53.566;9.910;2022-08-21T06:43:10;17.20;99.90
38902;DHT22;24661;53.566;9.910;2022-08-21T06:45:36;17.20;99.90
38902;DHT22;24661;53.566;9.910;2022-08-21T06:48:02;17.30;99.90
38902;DHT22;24661;53.566;9.910;2022-08-21T06:50:29;17.30;99.90
38902;DHT22;24661;53.566;9.910;2022-08-21T06:53:05;17.40;99.90
38902;DHT22;24661;53.566;9.910;2022-08-21T06:55:32;17.50;99.90
38902;DHT22;24661;53.566;9.910;2022-08-21T06:57:58;17.70;99.90
38902;DHT22;24661;53.566;9.910;2022-08-21T07:00:24;17.80;99.90
38902;DHT22;24661;53.566;9.910;2022-08-21T07:02:50;18.00;99.90
38902;DHT22;24661;53.566;9.910;2022-08-21T07:05:16;18.00;99.90
38902;DHT22;24661;53.566;9.910;2022-08-21T07:07:42;18.10;99.90
38902;DHT22;24661;53.566;9.910;2022-08-21T07:10:08;18.20;99.90
38902;DHT22;24661;53.566;9.910;2022-08-21T07:12:34;18.30;99.90
38902;DHT22;24661;53.566;9.910;2022-08-21T07:15:00;18.50;99.90
38902;DHT22;24661;53.566;9.910;2022-08-21T07:17:26;18.60;99.90
38902;DHT22;24661;53.566;9.910;2022-08-21T07:19:51;18.60;99.90
38902;DHT22;24661;53.566;9.910;2022-08-21T07:22:19;18.70;99.90
38902;DHT22;24661;53.566;9.910;2022-08-21T07:24:46;18.70;99.90
38902;DHT22;24661;53.566;9.910;2022-08-21T07:27:12;18.80;99.90
38902;DHT22;24661;53.566;9.910;2022-08-21T07:29:38;18.90;99.90
38902;DHT22;24661;53.566;9.910;2022-08-21T07:32:04;19.00;99.90
38902;DHT22;24661;53.566;9.910;2022-08-21T07:34:30;19.10;99.90
38902;DHT22;24661;53.566;9.910;2022-08-21T07:36:57;19.10;99.90
38902;DHT22;24661;53.566;9.910;2022-08-21T07:39:23;19.30;99.90
38902;DHT22;24661;53.566;9.910;2022-08-21T07:41:49;19.40;99.90
38902;DHT22;24661;53.566;9.910;2022-08-21T07:44:14;19.40;99.90
38902;DHT22;24661;53.566;9.910;2022-08-21T07:46:40;19.40;99.90
38902;DHT22;24661;53.566;9.910;2022-08-21T07:49:06;20.40;99.90
38902;DHT22;24661;53.566;9.910;2022-08-21T07:51:32;19.70;99.90
38902;DHT22;24661;53.566;9.910;2022-08-21T07:53:59;19.80;99.90
38902;DHT22;24661;53.566;9.910;2022-08-21T07:56:26;19.90;99.90
38902;DHT22;24661;53.566;9.910;2022-08-21T07:58:53;19.90;99.90
38902;DHT22;24661;53.566;9.910;2022-08-21T08:01:18;21.50;99.90
38902;DHT22;24661;53.566;9.910;2022-08-21T08:03:44;20.10;99.90
38902;DHT22;24661;53.566;9.910;2022-08-21T08:06:11;20.10;99.90
38902;DHT22;24661;53.566;9.910;2022-08-21T08:08:41;22.80;99.90
38902;DHT22;24661;53.566;9.910;2022-08-21T08:11:11;20.20;99.90
38902;DHT22;24661;53.566;9.910;2022-08-21T08:13:47;20.30;99.90
38902;DHT22;24661;53.566;9.910;2022-08-21T08:16:13;20.40;99.90
38902;DHT22;24661;53.566;9.910;2022-08-21T08:18:39;20.40;99.90
38902;DHT22;24661;53.566;9.910;2022-08-21T08:21:05;20.50;99.90
38902;DHT22;24661;53.566;9.910;2022-08-21T08:23:32;20.60;99.90
38902;DHT22;24661;53.566;9.910;2022-08-21T08:25:58;20.60;99.90
38902;DHT22;24661;53.566;9.910;2022-08-21T08:28:24;20.70;99.90
38902;DHT22;24661;53.566;9.910;2022-08-21T08:30:50;20.80;99.90
38902;DHT22;24661;53.566;9.910;2022-08-21T08:33:18;20.90;99.90
38902;DHT22;24661;53.566;9.910;2022-08-21T08:35:48;21.00;99.90
38902;DHT22;24661;53.566;9.910;2022-08-21T08:38:15;20.90;99.90
38902;DHT22;24661;53.566;9.910;2022-08-21T08:41:06;21.00;99.90
38902;DHT22;24661;53.566;9.910;2022-08-21T08:43:33;21.00;99.90
38902;DHT22;24661;53.566;9.910;2022-08-21T08:46:03;21.10;99.90
38902;DHT22;24661;53.566;9.910;2022-08-21T08:48:53;21.20;99.90
38902;DHT22;24661;53.566;9.910;2022-08-21T08:51:25;21.10;99.90
38902;DHT22;24661;53.566;9.910;2022-08-21T08:53:57;21.10;99.90
38902;DHT22;24661;53.566;9.910;2022-08-21T08:56:30;22.50;99.90
38902;DHT22;24661;53.566;9.910;2022-08-21T08:59:02;21.10;99.90
38902;DHT22;24661;53.566;9.910;2022-08-21T09:01:32;21.20;99.90
38902;DHT22;24661;53.566;9.910;2022-08-21T09:03:58;21.20;99.90
38902;DHT22;24661;53.566;9.910;2022-08-21T09:14:36;21.40;99.90
38902;DHT22;24661;53.566;9.910;2022-08-21T09:23:22;21.70;99.90
38902;DHT22;24661;53.566;9.910;2022-08-21T09:28:35;23.10;99.90
38902;DHT22;24661;53.566;9.910;2022-08-21T09:31:07;21.80;99.90
38902;DHT22;24661;53.566;9.910;2022-08-21T09:33:33;21.80;99.90
38902;DHT22;24661;53.566;9.910;2022-08-21T09:35:58;21.90;99.90
38902;DHT22;24661;53.566;9.910;2022-08-21T09:38:28;21.80;99.90
38902;DHT22;24661;53.566;9.910;2022-08-21T09:41:02;21.80;99.90
38902;DHT22;24661;53.566;9.910;2022-08-21T09:43:29;21.90;99.90
38902;DHT22;24661;53.566;9.910;2022-08-21T09:48:45;22.20;99.90
38902;DHT22;24661;53.566;9.910;2022-08-21T09:51:15;24.40;99.90
38902;DHT22;24661;53.566;9.910;2022-08-21T09:53:48;22.10;99.90
38902;DHT22;24661;53.566;9.910;2022-08-21T09:56:31;22.20;99.90
38902;DHT22;24661;53.566;9.910;2022-08-21T09:59:32;22.20;99.90
38902;DHT22;24661;53.566;9.910;2022-08-21T10:02:01;22.20;99.90
38902;DHT22;24661;53.566;9.910;2022-08-21T10:04:35;22.30;99.90
38902;DHT22;24661;53.566;9.910;2022-08-21T10:07:12;22.30;99.90
38902;DHT22;24661;53.566;9.910;2022-08-21T10:09:39;22.40;99.90
38902;DHT22;24661;53.566;9.910;2022-08-21T10:12:21;22.70;99.90
38902;DHT22;24661;53.566;9.910;2022-08-21T10:18:29;22.70;99.90
38902;DHT22;24661;53.566;9.910;2022-08-21T10:21:18;22.70;99.90
38902;DHT22;24661;53.566;9.910;2022-08-21T10:23:57;22.70;99.90
38902;DHT22;24661;53.566;9.910;2022-08-21T10:32:14;22.60;99.90
38902;DHT22;24661;53.566;9.910;2022-08-21T10:48:29;22.80;99.90
38902;DHT22;24661;53.566;9.910;2022-08-21T10:51:18;22.80;99.90
38902;DHT22;24661;53.566;9.910;2022-08-21T10:54:02;22.80;99.90
38902;DHT22;24661;53.566;9.910;2022-08-21T10:56:33;22.90;99.90
38902;DHT22;24661;53.566;9.910;2022-08-21T11:02:02;23.00;99.90
38902;DHT22;24661;53.566;9.910;2022-08-21T11:04:34;23.10;99.90
38902;DHT22;24661;53.566;9.910;2022-08-21T11:07:07;23.10;99.90
38902;DHT22;24661;53.566;9.910;2022-08-21T11:09:43;23.30;99.90
38902;DHT22;24661;53.566;9.910;2022-08-21T11:12:35;23.40;99.90
38902;DHT22;24661;53.566;9.910;2022-08-21T11:23:48;23.50;99.90
38902;DHT22;24661;53.566;9.910;2022-08-21T11:26:27;23.40;99.90
38902;DHT22;24661;53.566;9.910;2022-08-21T11:29:04;23.50;99.90
38902;DHT22;24661;53.566;9.910;2022-08-21T11:34:46;23.50;99.90
38902;DHT22;24661;53.566;9.910;2022-08-21T11:37:47;23.40;99.90
38902;DHT22;24661;53.566;9.910;2022-08-21T11:43:43;23.10;99.90
38902;DHT22;24661;53.566;9.910;2022-08-21T11:46:35;23.20;99.90
38902;DHT22;24661;53.566;9.910;2022-08-21T11:49:17;23.40;99.90
38902;DHT22;24661;53.566;9.910;2022-08-21T11:51:48;23.50;99.90
38902;DHT22;24661;53.566;9.910;2022-08-21T11:54:23;23.60;99.90
38902;DHT22;24661;53.566;9.910;2022-08-21T11:57:03;23.40;99.90
38902;DHT22;24661;53.566;9.910;2022-08-21T12:00:02;23.30;99.90
38902;DHT22;24661;53.566;9.910;2022-08-21T12:02:36;23.40;99.90
38902;DHT22;24661;53.566;9.910;2022-08-21T12:05:09;23.40;99.90
38902;DHT22;24661;53.566;9.910;2022-08-21T12:07:38;23.40;99.90
38902;DHT22;24661;53.566;9.910;2022-08-21T12:10:12;23.50;99.90
38902;DHT22;24661;53.566;9.910;2022-08-21T12:12:41;23.50;99.90
38902;DHT22;24661;53.566;9.910;2022-08-21T12:18:04;23.70;99.90
38902;DHT22;24661;53.566;9.910;2022-08-21T12:20:43;23.50;99.90
38902;DHT22;24661;53.566;9.910;2022-08-21T12:26:02;23.40;99.90
38902;DHT22;24661;53.566;9.910;2022-08-21T12:28:29;23.70;99.90
38902;DHT22;24661;53.566;9.910;2022-08-21T12:30:57;23.90;99.90
38902;DHT22;24661;53.566;9.910;2022-08-21T12:33:33;24.10;99.90
38902;DHT22;24661;53.566;9.910;2022-08-21T12:36:22;24.40;99.90
38902;DHT22;24661;53.566;9.910;2022-08-21T12:44:08;24.70;99.90
38902;DHT22;24661;53.566;9.910;2022-08-21T12:46:54;24.70;99.90
38902;DHT22;24661;53.566;9.910;2022-08-21T12:52:09;24.80;99.90
38902;DHT22;24661;53.566;9.910;2022-08-21T12:54:45;24.70;99.90
38902;DHT22;24661;53.566;9.910;2022-08-21T12:59:45;24.20;99.90
38902;DHT22;24661;53.566;9.910;2022-08-21T13:02:20;24.10;99.90
38902;DHT22;24661;53.566;9.910;2022-08-21T13:04:47;24.10;99.90
38902;DHT22;24661;53.566;9.910;2022-08-21T13:07:22;24.20;99.90
38902;DHT22;24661;53.566;9.910;2022-08-21T13:09:51;24.40;99.90
38902;DHT22;24661;53.566;9.910;2022-08-21T13:12:19;24.40;99.90
38902;DHT22;24661;53.566;9.910;2022-08-21T13:14:46;24.60;99.90
38902;DHT22;24661;53.566;9.910;2022-08-21T13:17:16;24.80;99.90
38902;DHT22;24661;53.566;9.910;2022-08-21T13:19:42;25.00;99.90
38902;DHT22;24661;53.566;9.910;2022-08-21T13:22:15;25.20;99.90
38902;DHT22;24661;53.566;9.910;2022-08-21T13:24:40;25.30;99.90
38902;DHT22;24661;53.566;9.910;2022-08-21T13:27:27;25.40;99.90
38902;DHT22;24661;53.566;9.910;2022-08-21T13:30:19;25.20;99.90
38902;DHT22;24661;53.566;9.910;2022-08-21T13:32:48;25.00;99.90
38902;DHT22;24661;53.566;9.910;2022-08-21T13:35:22;24.80;99.90
38902;DHT22;24661;53.566;9.910;2022-08-21T13:37:49;24.90;99.90
38902;DHT22;24661;53.566;9.910;2022-08-21T13:40:25;25.20;99.90
38902;DHT22;24661;53.566;9.910;2022-08-21T13:42:51;25.10;99.90
38902;DHT22;24661;53.566;9.910;2022-08-21T13:45:38;25.10;99.90
38902;DHT22;24661;53.566;9.910;2022-08-21T13:48:04;25.00;99.90
38902;DHT22;24661;53.566;9.910;2022-08-21T13:50:35;25.20;99.90
38902;DHT22;24661;53.566;9.910;2022-08-21T13:53:07;25.30;99.90
38902;DHT22;24661;53.566;9.910;2022-08-21T13:55:44;25.20;99.90
38902;DHT22;24661;53.566;9.910;2022-08-21T13:58:11;25.40;99.90
38902;DHT22;24661;53.566;9.910;2022-08-21T14:00:49;25.60;99.90
38902;DHT22;24661;53.566;9.910;2022-08-21T14:03:40;25.60;99.90
38902;DHT22;24661;53.566;9.910;2022-08-21T14:06:17;25.50;99.90
38902;DHT22;24661;53.566;9.910;2022-08-21T14:08:49;25.50;99.90
38902;DHT22;24661;53.566;9.910;2022-08-21T14:11:16;25.50;99.90
38902;DHT22;24661;53.566;9.910;2022-08-21T14:13:45;25.50;99.90
38902;DHT22;24661;53.566;9.910;2022-08-21T14:16:19;25.30;99.90
38902;DHT22;24661;53.566;9.910;2022-08-21T14:21:36;25.50;99.90
38902;DHT22;24661;53.566;9.910;2022-08-21T14:24:09;25.50;99.90
38902;DHT22;24661;53.566;9.910;2022-08-21T14:26:48;25.40;99.90
38902;DHT22;24661;53.566;9.910;2022-08-21T14:29:16;25.40;99.90
38902;DHT22;24661;53.566;9.910;2022-08-21T14:31:43;27.90;99.90
38902;DHT22;24661;53.566;9.910;2022-08-21T14:34:13;25.40;99.90
38902;DHT22;24661;53.566;9.910;2022-08-21T14:36:39;25.50;99.90
38902;DHT22;24661;53.566;9.910;2022-08-21T14:39:04;25.60;99.90
38902;DHT22;24661;53.566;9.910;2022-08-21T14:41:30;25.70;99.90
38902;DHT22;24661;53.566;9.910;2022-08-21T14:43:56;25.70;99.90
38902;DHT22;24661;53.566;9.910;2022-08-21T14:46:27;25.50;99.90
38902;DHT22;24661;53.566;9.910;2022-08-21T14:48:54;25.50;99.90
38902;DHT22;24661;53.566;9.910;2022-08-21T14:51:20;25.40;99.90
38902;DHT22;24661;53.566;9.910;2022-08-21T14:53:47;25.50;99.90
38902;DHT22;24661;53.566;9.910;2022-08-21T14:56:13;25.50;99.90
38902;DHT22;24661;53.566;9.910;2022-08-21T14:58:46;25.20;99.90
38902;DHT22;24661;53.566;9.910;2022-08-21T15:01:15;25.00;99.90
38902;DHT22;24661;53.566;9.910;2022-08-21T15:03:42;25.00;99.90
38902;DHT22;24661;53.566;9.910;2022-08-21T15:06:09;24.90;99.90
38902;DHT22;24661;53.566;9.910;2022-08-21T15:08:35;24.80;99.90
38902;DHT22;24661;53.566;9.910;2022-08-21T15:11:02;24.80;99.90
38902;DHT22;24661;53.566;9.910;2022-08-21T15:13:29;24.80;99.90
38902;DHT22;24661;53.566;9.910;2022-08-21T15:15:56;24.70;99.90
38902;DHT22;24661;53.566;9.910;2022-08-21T15:18:24;27.20;99.90
38902;DHT22;24661;53.566;9.910;2022-08-21T15:20:50;24.60;99.90
38902;DHT22;24661;53.566;9.910;2022-08-21T15:23:16;24.40;99.90
38902;DHT22;24661;53.566;9.910;2022-08-21T15:25:44;24.40;99.90
38902;DHT22;24661;53.566;9.910;2022-08-21T15:28:10;24.20;99.90
38902;DHT22;24661;53.566;9.910;2022-08-21T15:30:38;24.20;99.90
38902;DHT22;24661;53.566;9.910;2022-08-21T15:33:04;24.10;99.90
38902;DHT22;24661;53.566;9.910;2022-08-21T15:35:31;24.20;99.90
38902;DHT22;24661;53.566;9.910;2022-08-21T15:37:57;24.00;99.90
38902;DHT22;24661;53.566;9.910;2022-08-21T15:40:23;24.00;99.90
38902;DHT22;24661;53.566;9.910;2022-08-21T15:42:50;24.10;99.90
38902;DHT22;24661;53.566;9.910;2022-08-21T15:48:51;24.10;99.90
38902;DHT22;24661;53.566;9.910;2022-08-21T15:51:18;24.20;99.90
38902;DHT22;24661;53.566;9.910;2022-08-21T15:53:44;24.10;99.90
38902;DHT22;24661;53.566;9.910;2022-08-21T15:56:40;24.00;99.90
38902;DHT22;24661;53.566;9.910;2022-08-21T15:59:21;24.10;99.90
38902;DHT22;24661;53.566;9.910;2022-08-21T16:04:38;24.20;99.90
38902;DHT22;24661;53.566;9.910;2022-08-21T16:07:04;24.20;99.90
38902;DHT22;24661;53.566;9.910;2022-08-21T16:09:30;24.20;99.90
38902;DHT22;24661;53.566;9.910;2022-08-21T16:12:00;24.20;99.90
38902;DHT22;24661;53.566;9.910;2022-08-21T16:14:28;24.20;99.90
38902;DHT22;24661;53.566;9.910;2022-08-21T16:16:55;24.10;99.90
38902;DHT22;24661;53.566;9.910;2022-08-21T16:19:21;24.00;99.90
38902;DHT22;24661;53.566;9.910;2022-08-21T16:21:48;24.00;99.90
38902;DHT22;24661;53.566;9.910;2022-08-21T16:24:14;24.00;99.90
38902;DHT22;24661;53.566;9.910;2022-08-21T16:26:39;23.90;99.90
38902;DHT22;24661;53.566;9.910;2022-08-21T16:29:15;23.90;99.90
38902;DHT22;24661;53.566;9.910;2022-08-21T16:31:41;23.90;99.90
38902;DHT22;24661;53.566;9.910;2022-08-21T16:34:15;23.80;99.90
38902;DHT22;24661;53.566;9.910;2022-08-21T16:36:43;23.80;99.90
38902;DHT22;24661;53.566;9.910;2022-08-21T16:39:09;23.70;99.90
38902;DHT22;24661;53.566;9.910;2022-08-21T16:41:35;24.80;99.90
38902;DHT22;24661;53.566;9.910;2022-08-21T16:44:02;23.60;99.90
38902;DHT22;24661;53.566;9.910;2022-08-21T16:46:35;23.60;99.90
38902;DHT22;24661;53.566;9.910;2022-08-21T16:49:05;23.60;99.90
38902;DHT22;24661;53.566;9.910;2022-08-21T16:51:31;23.50;99.90
38902;DHT22;24661;53.566;9.910;2022-08-21T16:53:57;23.40;99.90
38902;DHT22;24661;53.566;9.910;2022-08-21T16:56:23;23.40;99.90
38902;DHT22;24661;53.566;9.910;2022-08-21T16:58:49;23.30;99.90
38902;DHT22;24661;53.566;9.910;2022-08-21T17:01:19;23.20;99.90
38902;DHT22;24661;53.566;9.910;2022-08-21T17:03:46;23.10;99.90
38902;DHT22;24661;53.566;9.910;2022-08-21T17:06:13;23.10;99.90
38902;DHT22;24661;53.566;9.910;2022-08-21T17:08:40;23.10;99.90
38902;DHT22;24661;53.566;9.910;2022-08-21T17:11:08;23.10;99.90
38902;DHT22;24661;53.566;9.910;2022-08-21T17:13:35;22.10;99.90
38902;DHT22;24661;53.566;9.910;2022-08-21T17:16:02;23.10;99.90
38902;DHT22;24661;53.566;9.910;2022-08-21T17:18:28;23.10;99.90
38902;DHT22;24661;53.566;9.910;2022-08-21T17:20:54;23.10;99.90
38902;DHT22;24661;53.566;9.910;2022-08-21T17:23:20;23.00;99.90
38902;DHT22;24661;53.566;9.910;2022-08-21T17:25:49;23.00;99.90
38902;DHT22;24661;53.566;9.910;2022-08-21T17:28:23;23.00;99.90
38902;DHT22;24661;53.566;9.910;2022-08-21T17:30:51;22.90;99.90
38902;DHT22;24661;53.566;9.910;2022-08-21T17:33:18;22.90;99.90
38902;DHT22;24661;53.566;9.910;2022-08-21T17:35:45;22.70;99.90
38902;DHT22;24661;53.566;9.910;2022-08-21T17:38:11;22.70;99.90
38902;DHT22;24661;53.566;9.910;2022-08-21T17:40:37;22.60;99.90
38902;DHT22;24661;53.566;9.910;2022-08-21T17:43:06;22.50;99.90
38902;DHT22;24661;53.566;9.910;2022-08-21T17:45:32;22.40;99.90
38902;DHT22;24661;53.566;9.910;2022-08-21T17:47:58;22.30;99.90
38902;DHT22;24661;53.566;9.910;2022-08-21T17:50:24;22.30;99.90
38902;DHT22;24661;53.566;9.910;2022-08-21T17:52:50;22.20;99.90
38902;DHT22;24661;53.566;9.910;2022-08-21T17:55:17;22.10;99.90
38902;DHT22;24661;53.566;9.910;2022-08-21T17:57:46;22.00;99.90
38902;DHT22;24661;53.566;9.910;2022-08-21T18:00:15;21.90;99.90